createdAt,value
2022-12-05T00:00:09.745Z,58.78
2022-12-05T00:02:39.365Z,61.40
2022-12-05T00:05:09.253Z,65.03
2022-12-05T00:07:39.470Z,57.27
2022-12-05T00:10:10.265Z,58.55
2022-12-05T00:12:40.274Z,53.33
2022-12-05T00:15:12.635Z,59.53
2022-12-05T00:17:42.250Z,58.97
2022-12-05T00:20:12.073Z,57.08
2022-12-05T00:22:41.570Z,57.20
2022-12-05T00:25:11.360Z,53.17
2022-12-05T00:27:41.013Z,56.40
2022-12-05T00:30:10.780Z,55.83
2022-12-05T00:32:40.225Z,58.08
2022-12-05T00:35:10.133Z,54.42
2022-12-05T00:37:39.570Z,53.02
2022-12-05T00:40:10.185Z,59.53
2022-12-05T00:42:39.738Z,56.13
2022-12-05T00:45:10.267Z,58.50
2022-12-05T00:47:39.727Z,55.70
2022-12-05T00:50:10.207Z,58.98
2022-12-05T00:52:39.715Z,57.03
2022-12-05T00:55:10.043Z,59.45
2022-12-05T00:57:39.470Z,66.10
2022-12-05T01:00:10.137Z,68.70
2022-12-05T01:02:39.632Z,68.15
2022-12-05T01:05:09.753Z,61.95
2022-12-05T01:07:39.488Z,67.40
2022-12-05T01:10:09.642Z,62.53
2022-12-05T01:12:39.171Z,63.52
2022-12-05T01:15:10.579Z,62.50
2022-12-05T01:17:40.570Z,62.73
2022-12-05T01:20:10.838Z,61.60
2022-12-05T01:22:40.266Z,60.85
2022-12-05T01:25:10.172Z,57.27
2022-12-05T01:27:39.761Z,61.53
2022-12-05T01:30:10.511Z,65.47
2022-12-05T01:32:39.943Z,56.88
2022-12-05T01:35:09.777Z,65.45
2022-12-05T01:37:39.212Z,83.17
2022-12-05T01:40:10.579Z,72.37
2022-12-05T01:42:41.072Z,67.58
2022-12-05T01:45:19.333Z,71.93
2022-12-05T01:47:49.193Z,74.53
2022-12-05T01:50:19.155Z,78.55
2022-12-05T01:52:48.858Z,67.47
2022-12-05T01:55:20.427Z,70.45
2022-12-05T01:57:51.025Z,58.33
2022-12-05T02:00:22.571Z,54.23
2022-12-05T02:02:55.268Z,54.40
2022-12-05T02:05:34.215Z,58.50
2022-12-05T02:08:07.624Z,55.67
2022-12-05T02:10:40.239Z,55.25
2022-12-05T02:13:29.327Z,57.55
2022-12-05T02:16:01.890Z,49.33
2022-12-05T02:18:51.599Z,53.60
2022-12-05T02:21:40.909Z,51.46
2022-12-05T02:24:49.202Z,50.65
2022-12-05T02:27:27.256Z,50.98
2022-12-05T02:30:02.856Z,48.80
2022-12-05T02:32:44.231Z,48.85
2022-12-05T02:35:42.577Z,53.00
2022-12-05T02:38:39.268Z,49.63
2022-12-05T02:41:29.743Z,48.08
2022-12-05T02:44:07.996Z,55.65
2022-12-05T02:46:39.953Z,46.80
2022-12-05T02:49:12.459Z,49.77
2022-12-05T02:51:48.219Z,52.62
2022-12-05T02:54:20.726Z,49.50
2022-12-05T02:56:53.257Z,45.08
2022-12-05T02:59:23.856Z,50.15
2022-12-05T03:01:54.094Z,51.48
2022-12-05T03:04:26.028Z,45.95
2022-12-05T03:07:01.439Z,45.98
2022-12-05T03:09:39.991Z,47.95
2022-12-05T03:12:21.332Z,48.02
2022-12-05T03:14:53.844Z,45.52
2022-12-05T03:20:09.092Z,50.55
2022-12-05T03:22:54.047Z,44.20
2022-12-05T03:26:00.928Z,46.65
2022-12-05T03:28:35.967Z,46.18
2022-12-05T03:31:08.547Z,46.28
2022-12-05T03:33:41.174Z,46.13
2022-12-05T03:36:25.729Z,42.88
2022-12-05T03:39:13.291Z,46.58
2022-12-05T03:41:45.778Z,52.50
2022-12-05T03:44:24.692Z,43.55
2022-12-05T03:46:57.189Z,42.15
2022-12-05T03:49:34.288Z,47.88
2022-12-05T03:52:18.617Z,44.33
2022-12-05T03:54:54.406Z,47.15
2022-12-05T03:57:32.866Z,45.17
2022-12-05T04:00:08.063Z,49.30
2022-12-05T04:02:52.490Z,41.50
2022-12-05T04:05:46.162Z,45.48
2022-12-05T04:08:18.799Z,47.00
2022-12-05T04:10:51.271Z,48.38
2022-12-05T04:13:29.643Z,46.92
2022-12-05T04:16:19.829Z,49.38
2022-12-05T04:18:52.381Z,44.33
2022-12-05T04:21:40.197Z,39.55
2022-12-05T04:24:30.326Z,43.42
2022-12-05T04:27:19.739Z,38.95
2022-12-05T04:30:10.829Z,40.65
2022-12-05T04:32:45.980Z,39.53
2022-12-05T04:35:21.436Z,36.98
2022-12-05T04:37:54.527Z,38.02
2022-12-05T04:40:29.681Z,38.42
2022-12-05T04:43:02.182Z,39.20
2022-12-05T04:45:33.726Z,38.85
2022-12-05T04:48:06.223Z,38.87
2022-12-05T04:50:37.206Z,44.23
2022-12-05T04:53:09.248Z,37.17
2022-12-05T04:55:41.762Z,37.27
2022-12-05T04:58:14.263Z,41.88
2022-12-05T05:03:32.213Z,37.50
2022-12-05T05:06:03.655Z,38.28
2022-12-05T05:08:33.084Z,37.98
2022-12-05T05:11:17.479Z,43.45
2022-12-05T05:13:47.025Z,37.53
2022-12-05T05:16:31.285Z,39.58
2022-12-05T05:19:00.781Z,38.50
2022-12-05T05:21:33.037Z,36.85
2022-12-05T05:24:03.167Z,37.00
2022-12-05T05:26:35.171Z,37.42
2022-12-05T05:29:04.860Z,37.83
2022-12-05T05:31:35.619Z,42.90
2022-12-05T05:34:09.757Z,38.05
2022-12-05T05:39:07.660Z,38.20
2022-12-05T05:41:38.388Z,33.20
2022-12-05T05:44:07.814Z,39.45
2022-12-05T05:46:38.281Z,35.90
2022-12-05T05:49:08.143Z,35.48
2022-12-05T05:51:37.596Z,37.55
2022-12-05T05:54:07.119Z,32.90
2022-12-05T05:56:36.547Z,39.15
2022-12-05T05:59:06.051Z,39.50
2022-12-05T06:01:35.544Z,38.67
2022-12-05T06:04:05.168Z,37.13
2022-12-05T06:06:35.078Z,37.65
2022-12-05T06:09:06.062Z,39.85
2022-12-05T06:11:35.489Z,38.55
2022-12-05T06:14:04.906Z,33.35
2022-12-05T06:16:34.521Z,38.00
2022-12-05T06:19:03.938Z,32.42
2022-12-05T06:21:34.120Z,38.67
2022-12-05T06:24:03.635Z,37.58
2022-12-05T06:26:33.087Z,43.15
2022-12-05T06:29:02.501Z,39.15
2022-12-05T06:31:33.660Z,35.30
2022-12-05T06:34:05.070Z,32.67
2022-12-05T06:36:35.026Z,36.23
2022-12-05T06:39:05.459Z,38.83
2022-12-05T06:41:35.803Z,33.73
2022-12-05T06:44:06.060Z,32.88
2022-12-05T06:46:35.523Z,38.28
2022-12-05T06:49:05.027Z,35.83
2022-12-05T06:51:34.534Z,40.10
2022-12-05T06:54:04.148Z,40.80
2022-12-05T06:56:33.716Z,40.98
2022-12-05T06:59:03.133Z,39.60
2022-12-05T07:01:43.515Z,42.00
2022-12-05T07:04:16.253Z,44.55
2022-12-05T07:06:50.786Z,49.95
2022-12-05T07:09:22.640Z,49.48
2022-12-05T07:11:52.711Z,55.10
2022-12-05T07:16:54.308Z,55.23
2022-12-05T07:19:24.534Z,53.38
2022-12-05T07:21:54.028Z,49.75
2022-12-05T07:24:23.512Z,47.60
2022-12-05T07:26:53.040Z,47.70
2022-12-05T07:29:22.500Z,54.13
2022-12-05T07:31:51.971Z,88.45
2022-12-05T07:34:21.533Z,89.17
2022-12-05T07:36:50.992Z,94.32
2022-12-05T07:39:20.413Z,99.58
2022-12-05T07:41:49.862Z,106.43
2022-12-05T07:44:19.634Z,84.07
2022-12-05T07:46:49.178Z,65.12
2022-12-05T07:49:18.766Z,65.50
2022-12-05T07:51:49.957Z,60.97
2022-12-05T07:54:19.541Z,62.75
2022-12-05T07:56:48.975Z,56.83
2022-12-05T07:59:18.535Z,58.03
2022-12-05T08:01:48.105Z,58.85
2022-12-05T08:04:18.280Z,56.70
2022-12-05T08:06:47.758Z,60.00
2022-12-05T08:09:17.192Z,57.88
2022-12-05T08:11:52.174Z,57.70
2022-12-05T08:14:17.701Z,82.20
2022-12-05T08:16:47.288Z,81.02
2022-12-05T08:19:17.401Z,83.87
2022-12-05T08:21:47.001Z,85.22
2022-12-05T08:24:16.439Z,83.60
2022-12-05T08:26:45.874Z,74.42
2022-12-05T08:29:16.823Z,62.25
2022-12-05T08:31:49.426Z,70.05
2022-12-05T08:34:21.117Z,57.23
2022-12-05T08:36:50.614Z,53.83
2022-12-05T08:39:21.257Z,52.13
2022-12-05T08:41:51.118Z,58.68
2022-12-05T08:44:20.619Z,44.00
2022-12-05T08:46:51.733Z,49.55
2022-12-05T08:49:21.952Z,49.98
2022-12-05T08:51:51.542Z,47.62
2022-12-05T08:54:21.046Z,44.33
2022-12-05T08:56:53.237Z,48.40
2022-12-05T08:59:22.755Z,42.45
2022-12-05T09:01:52.692Z,46.83
2022-12-05T09:04:22.174Z,38.15
2022-12-05T09:06:52.270Z,43.10
2022-12-05T09:09:21.703Z,43.63
2022-12-05T09:11:51.429Z,37.65
2022-12-05T09:14:20.929Z,33.23
2022-12-05T09:16:50.618Z,33.70
2022-12-05T09:19:23.188Z,39.73
2022-12-05T09:21:52.685Z,38.83
2022-12-05T09:24:22.271Z,30.90
2022-12-05T09:26:52.365Z,31.62
2022-12-05T09:29:22.119Z,33.55
2022-12-05T09:31:53.234Z,32.42
2022-12-05T09:34:24.371Z,31.20
2022-12-05T09:37:10.159Z,28.75
2022-12-05T09:39:25.592Z,37.50
2022-12-05T09:42:08.713Z,34.40
2022-12-05T09:44:50.168Z,33.10
2022-12-05T09:47:37.534Z,36.95
2022-12-05T09:50:25.276Z,31.45
2022-12-05T09:53:25.287Z,28.90
2022-12-05T09:56:17.452Z,32.10
2022-12-05T09:58:50.223Z,27.58
2022-12-05T10:01:22.768Z,29.92
2022-12-05T10:04:23.967Z,23.65
2022-12-05T10:07:11.614Z,25.80
2022-12-05T10:09:59.023Z,19.30
2022-12-05T10:12:52.658Z,17.55
2022-12-05T10:15:45.955Z,14.15
2022-12-05T10:18:39.642Z,21.35
2022-12-05T10:23:58.659Z,17.50
2022-12-05T10:29:17.147Z,14.87
2022-12-05T10:31:49.346Z,16.40
2022-12-05T10:34:33.672Z,13.30
2022-12-05T10:37:23.436Z,19.17
2022-12-05T10:39:55.685Z,16.55
2022-12-05T10:42:28.191Z,12.40
2022-12-05T10:45:03.369Z,15.43
2022-12-05T10:47:34.689Z,12.90
2022-12-05T10:50:25.024Z,12.37
2022-12-05T10:52:57.567Z,16.52
2022-12-05T10:55:32.694Z,14.05
2022-12-05T10:58:18.004Z,17.52
2022-12-05T11:00:51.856Z,15.72
2022-12-05T11:03:27.829Z,16.40
2022-12-05T11:09:02.458Z,12.35
2022-12-05T11:11:22.258Z,18.30
2022-12-05T11:13:57.309Z,13.70
2022-12-05T11:16:29.954Z,11.80
2022-12-05T11:19:17.526Z,16.63
2022-12-05T11:21:47.143Z,11.45
2022-12-05T11:24:31.617Z,13.22
2022-12-05T11:27:04.208Z,13.80
2022-12-05T11:29:39.102Z,15.68
2022-12-05T11:32:23.463Z,21.65
2022-12-05T11:35:08.082Z,14.67
2022-12-05T11:37:54.034Z,10.13
2022-12-05T11:40:38.980Z,22.75
2022-12-05T11:43:27.092Z,27.93
2022-12-05T11:46:26.366Z,9.80
2022-12-05T11:49:02.519Z,23.90
2022-12-05T11:51:44.021Z,16.57
2022-12-05T11:57:11.970Z,18.40
2022-12-05T12:00:07.886Z,12.33
2022-12-05T12:02:45.940Z,22.55
2022-12-05T12:05:24.503Z,14.13
2022-12-05T12:08:18.815Z,10.68
2022-12-05T12:10:51.367Z,12.28
2022-12-05T12:13:46.576Z,14.65
2022-12-05T12:16:31.350Z,19.10
2022-12-05T12:19:09.894Z,10.82
2022-12-05T12:21:51.306Z,13.10
2022-12-05T12:24:41.362Z,12.47
2022-12-05T12:27:49.643Z,16.10
2022-12-05T12:30:24.873Z,11.97
2022-12-05T12:33:10.106Z,14.43
2022-12-05T12:36:00.243Z,11.40
2022-12-05T12:38:51.716Z,12.43
2022-12-05T12:41:40.866Z,11.38
2022-12-05T12:44:21.816Z,10.98
2022-12-05T12:47:03.559Z,13.43
2022-12-05T12:49:41.594Z,8.68
2022-12-05T12:52:16.782Z,10.23
2022-12-05T12:55:08.483Z,10.80
2022-12-05T12:57:47.334Z,9.50
2022-12-05T13:00:36.541Z,8.05
2022-12-05T13:03:09.043Z,10.55
2022-12-05T13:05:56.712Z,8.13
2022-12-05T13:08:44.082Z,6.83
2022-12-05T13:11:16.666Z,7.45
2022-12-05T13:13:49.392Z,7.40
2022-12-05T13:16:24.990Z,6.97
2022-12-05T13:18:56.813Z,6.85
2022-12-05T13:21:28.549Z,8.27
2022-12-05T13:24:06.427Z,6.20
2022-12-05T13:26:36.087Z,4.60
2022-12-05T13:29:06.337Z,5.40
2022-12-05T13:31:39.079Z,10.80
2022-12-05T13:39:48.882Z,4.72
2022-12-05T13:42:28.039Z,3.90
2022-12-05T13:45:06.144Z,6.15
2022-12-05T13:47:59.730Z,6.87
2022-12-05T13:53:08.806Z,8.13
2022-12-05T13:55:41.094Z,7.83
2022-12-05T13:58:28.793Z,4.83
2022-12-05T14:01:27.769Z,6.90
2022-12-05T14:04:01.157Z,7.05
2022-12-05T14:06:39.755Z,5.97
2022-12-05T14:09:20.817Z,9.73
2022-12-05T14:12:15.554Z,7.20
2022-12-05T14:15:04.482Z,14.45
2022-12-05T14:17:36.478Z,5.20
2022-12-05T14:20:20.972Z,10.40
2022-12-05T14:23:02.192Z,10.20
2022-12-05T14:25:54.625Z,13.38
2022-12-05T14:28:51.427Z,8.25
2022-12-05T14:31:39.447Z,5.08
2022-12-05T14:34:19.164Z,8.20
2022-12-05T14:37:01.054Z,6.30
2022-12-05T14:39:39.984Z,5.33
2022-12-05T14:42:41.590Z,5.77
2022-12-05T14:45:25.907Z,5.77
2022-12-05T14:48:01.162Z,5.78
2022-12-05T14:50:51.286Z,6.58
2022-12-05T14:53:24.373Z,6.42
2022-12-05T14:55:59.644Z,11.78
2022-12-05T14:58:53.056Z,12.18
2022-12-05T15:01:34.459Z,10.60
2022-12-05T15:04:20.311Z,10.67
2022-12-05T15:06:53.536Z,9.83
2022-12-05T15:09:37.614Z,22.55
2022-12-05T15:12:09.698Z,9.85
2022-12-05T15:14:48.511Z,7.78
2022-12-05T15:17:21.083Z,15.10
2022-12-05T15:19:59.377Z,48.17
2022-12-05T15:22:32.609Z,39.50
2022-12-05T15:25:16.166Z,42.08
2022-12-05T15:27:57.659Z,11.83
2022-12-05T15:30:28.656Z,14.63
2022-12-05T15:33:00.548Z,21.40
2022-12-05T15:35:33.060Z,14.00
2022-12-05T15:38:09.359Z,14.93
2022-12-05T15:40:38.996Z,14.50
2022-12-05T15:43:27.817Z,16.12
2022-12-05T15:46:27.775Z,14.30
2022-12-05T15:49:01.125Z,15.88
2022-12-05T15:51:36.820Z,15.05
2022-12-05T15:54:15.016Z,12.28
2022-12-05T15:56:50.246Z,14.83
2022-12-05T15:59:25.688Z,9.68
2022-12-05T16:01:58.283Z,19.60
2022-12-05T16:04:39.720Z,13.32
2022-12-05T16:07:12.134Z,13.13
2022-12-05T16:09:44.311Z,16.77
2022-12-05T16:12:19.783Z,15.13
2022-12-05T16:15:00.677Z,14.73
2022-12-05T16:17:24.558Z,17.07
2022-12-05T16:19:54.374Z,15.55
2022-12-05T16:22:28.732Z,12.93
2022-12-05T16:25:05.317Z,18.07
2022-12-05T16:27:39.364Z,18.20
2022-12-05T16:30:20.590Z,15.68
2022-12-05T16:32:54.286Z,16.35
2022-12-05T16:35:45.934Z,21.48
2022-12-05T16:38:25.742Z,19.80
2022-12-05T16:41:01.086Z,16.00
2022-12-05T16:43:36.537Z,15.38
2022-12-05T16:46:18.080Z,17.15
2022-12-05T16:49:10.444Z,20.70
2022-12-05T16:51:45.588Z,18.37
2022-12-05T16:54:15.028Z,20.03
2022-12-05T16:56:44.450Z,21.50
2022-12-05T16:59:26.615Z,19.60
2022-12-05T17:01:57.461Z,21.37
2022-12-05T17:04:27.217Z,19.70
2022-12-05T17:06:57.289Z,20.15
2022-12-05T17:09:26.812Z,22.52
2022-12-05T17:12:14.514Z,19.05
2022-12-05T17:14:43.949Z,31.60
2022-12-05T17:17:17.109Z,30.40
2022-12-05T17:19:46.627Z,34.00
2022-12-05T17:22:17.507Z,30.72
2022-12-05T17:24:47.214Z,29.15
2022-12-05T17:27:17.963Z,27.90
2022-12-05T17:29:47.390Z,27.22
2022-12-05T17:32:16.815Z,22.52
2022-12-05T17:34:46.336Z,18.95
2022-12-05T17:37:18.466Z,22.30
2022-12-05T17:39:47.942Z,14.83
2022-12-05T17:42:17.362Z,11.23
2022-12-05T17:44:46.986Z,14.58
2022-12-05T17:47:16.553Z,12.30
2022-12-05T17:49:46.037Z,11.12
2022-12-05T17:52:23.571Z,9.98
2022-12-05T17:54:47.603Z,7.57
2022-12-05T17:57:17.083Z,11.57
2022-12-05T17:59:46.576Z,9.63
2022-12-05T18:02:17.736Z,16.05
2022-12-05T18:04:48.013Z,11.48
2022-12-05T18:07:19.017Z,10.13
2022-12-05T18:09:48.527Z,16.75
2022-12-05T18:12:18.091Z,23.33
2022-12-05T18:14:47.718Z,16.20
2022-12-05T18:17:17.131Z,7.53
2022-12-05T18:19:46.707Z,8.03
2022-12-05T18:22:29.195Z,6.37
2022-12-05T18:25:00.629Z,11.40
2022-12-05T18:27:32.262Z,9.50
2022-12-05T18:30:01.963Z,11.08
2022-12-05T18:32:31.391Z,11.18
2022-12-05T18:35:02.332Z,13.30
2022-12-05T18:37:34.113Z,9.55
2022-12-05T18:40:04.582Z,9.40
2022-12-05T18:42:34.007Z,6.62
2022-12-05T18:45:04.554Z,9.20
2022-12-05T18:47:34.046Z,7.42
2022-12-05T18:50:03.548Z,7.80
2022-12-05T18:52:33.026Z,8.33
2022-12-05T18:55:16.945Z,9.68
2022-12-05T18:57:36.400Z,7.47
2022-12-05T19:00:07.439Z,9.15
2022-12-05T19:02:37.053Z,8.68
2022-12-05T19:05:06.711Z,8.73
2022-12-05T19:07:36.192Z,6.92
2022-12-05T19:10:07.015Z,5.97
2022-12-05T19:12:36.581Z,14.38
2022-12-05T19:15:06.955Z,14.10
2022-12-05T19:17:36.376Z,10.68
2022-12-05T19:20:07.701Z,7.83
2022-12-05T19:22:37.119Z,5.80
2022-12-05T19:25:07.339Z,10.53
2022-12-05T19:27:36.791Z,9.60
2022-12-05T19:30:10.263Z,7.28
2022-12-05T19:32:40.681Z,6.70
2022-12-05T19:35:11.344Z,7.85
2022-12-05T19:37:40.770Z,8.43
2022-12-05T19:40:11.483Z,6.70
2022-12-05T19:42:41.120Z,7.47
2022-12-05T19:45:16.409Z,7.03
2022-12-05T19:47:42.092Z,8.95
2022-12-05T19:50:11.600Z,5.53
2022-12-05T19:52:41.030Z,7.37
2022-12-05T19:55:10.646Z,5.70
2022-12-05T19:57:40.070Z,7.58
2022-12-05T20:00:13.031Z,6.25
2022-12-05T20:02:45.581Z,6.53
2022-12-05T20:05:13.882Z,7.70
2022-12-05T20:07:43.459Z,4.47
2022-12-05T20:10:12.930Z,8.88
2022-12-05T20:12:42.422Z,10.23
2022-12-05T20:15:11.851Z,7.58
2022-12-05T20:17:41.323Z,6.37
2022-12-05T20:20:11.250Z,15.28
2022-12-05T20:22:40.663Z,11.25
2022-12-05T20:25:10.227Z,16.10
2022-12-05T20:27:39.850Z,8.70
2022-12-05T20:30:10.486Z,16.17
2022-12-05T20:32:39.940Z,13.90
2022-12-05T20:35:09.599Z,7.83
2022-12-05T20:37:39.019Z,7.20
2022-12-05T20:40:09.545Z,7.30
2022-12-05T20:42:44.989Z,7.83
2022-12-05T20:45:10.480Z,8.05
2022-12-05T20:47:39.867Z,8.23
2022-12-05T20:50:10.034Z,9.70
2022-12-05T20:52:45.201Z,9.05
2022-12-05T20:55:11.388Z,9.70
2022-12-05T20:57:42.541Z,6.72
2022-12-05T21:00:13.611Z,7.20
2022-12-05T21:02:43.082Z,6.65
2022-12-05T21:05:13.453Z,7.92
2022-12-05T21:07:42.979Z,6.37
2022-12-05T21:10:12.646Z,9.08
2022-12-05T21:12:42.091Z,8.95
2022-12-05T21:15:11.894Z,12.73
2022-12-05T21:17:41.324Z,7.97
2022-12-05T21:20:11.213Z,9.65
2022-12-05T21:22:40.746Z,9.03
2022-12-05T21:25:10.146Z,9.40
2022-12-05T21:27:39.573Z,7.62
2022-12-05T21:30:10.243Z,9.43
2022-12-05T21:32:40.617Z,7.42
2022-12-05T21:35:11.883Z,12.90
2022-12-05T21:37:42.078Z,10.53
2022-12-05T21:40:11.744Z,8.40
2022-12-05T21:42:41.960Z,8.15
2022-12-05T21:45:11.738Z,12.70
2022-12-05T21:47:41.261Z,7.67
2022-12-05T21:50:11.378Z,7.75
2022-12-05T21:52:40.963Z,7.05
2022-12-05T21:55:11.370Z,8.00
2022-12-05T21:57:40.808Z,6.85
2022-12-05T22:00:11.291Z,5.25
2022-12-05T22:02:40.739Z,6.58
2022-12-05T22:05:11.357Z,5.67
2022-12-05T22:07:40.896Z,6.70
2022-12-05T22:10:12.912Z,7.70
2022-12-05T22:12:42.469Z,5.95
2022-12-05T22:15:13.304Z,6.45
2022-12-05T22:17:42.859Z,4.12
2022-12-05T22:20:12.441Z,8.33
2022-12-05T22:22:41.910Z,7.92
2022-12-05T22:25:11.327Z,9.78
2022-12-05T22:27:40.814Z,6.95
2022-12-05T22:30:11.750Z,7.40
2022-12-05T22:32:41.151Z,8.50
2022-12-05T22:35:10.589Z,5.65
2022-12-05T22:37:40.065Z,5.83
2022-12-05T22:40:10.571Z,8.75
2022-12-05T22:42:40.064Z,8.45
2022-12-05T22:45:10.383Z,5.78
2022-12-05T22:47:39.803Z,6.30
2022-12-05T22:50:10.100Z,10.00
2022-12-05T22:52:39.517Z,7.00
2022-12-05T22:55:09.915Z,6.75
2022-12-05T22:57:39.390Z,8.30
2022-12-05T23:00:10.319Z,10.93
2022-12-05T23:02:39.880Z,5.60
2022-12-05T23:05:09.490Z,6.10
2022-12-05T23:07:39.018Z,7.75
2022-12-05T23:10:09.619Z,6.30
2022-12-05T23:12:39.579Z,5.65
2022-12-05T23:15:09.849Z,7.40
2022-12-05T23:17:39.407Z,6.78
2022-12-05T23:20:09.830Z,7.53
2022-12-05T23:22:39.312Z,5.65
2022-12-05T23:25:10.090Z,7.42
2022-12-05T23:27:39.960Z,8.25
2022-12-05T23:30:10.906Z,6.17
2022-12-05T23:32:40.428Z,5.17
2022-12-05T23:35:11.366Z,3.17
2022-12-05T23:37:42.047Z,4.20
2022-12-05T23:40:11.690Z,4.00
2022-12-05T23:42:41.223Z,3.65
2022-12-05T23:45:12.029Z,6.08
2022-12-05T23:47:41.447Z,4.33
2022-12-05T23:50:11.135Z,5.05
2022-12-05T23:52:40.700Z,5.35
2022-12-05T23:55:10.723Z,4.75
2022-12-05T23:57:40.194Z,5.92
